sensor_id;sensor_type;location;lat;lon;timestamp;P1;P2;P0
82886;PMS5003;72660;51.258;-2.200;2024-02-15T00:00:14;2;2;
82886;PMS5003;72660;51.258;-2.200;2024-02-15T00:02:39;4;4;
82886;PMS5003;72660;51.258;-2.200;2024-02-15T00:05:05;1;1;
82886;PMS5003;72660;51.258;-2.200;2024-02-15T00:07:30;3;1;
82886;PMS5003;72660;51.258;-2.200;2024-02-15T00:09:55;1;1;
82886;PMS5003;72660;51.258;-2.200;2024-02-15T00:12:21;2;2;
82886;PMS5003;72660;51.258;-2.200;2024-02-15T00:14:46;2;2;
82886;PMS5003;72660;51.258;-2.200;2024-02-15T00:17:11;2;1;
82886;PMS5003;72660;51.258;-2.200;2024-02-15T00:19:36;3;1;
82886;PMS5003;72660;51.258;-2.200;2024-02-15T00:22:02;3;1;
82886;PMS5003;72660;51.258;-2.200;2024-02-15T00:24:27;0;0;
82886;PMS5003;72660;51.258;-2.200;2024-02-15T00:26:52;2;2;
82886;PMS5003;72660;51.258;-2.200;2024-02-15T00:29:18;2;2;
82886;PMS5003;72660;51.258;-2.200;2024-02-15T00:31:43;2;2;
82886;PMS5003;72660;51.258;-2.200;2024-02-15T00:34:08;4;2;
82886;PMS5003;72660;51.258;-2.200;2024-02-15T00:36:33;1;1;
82886;PMS5003;72660;51.258;-2.200;2024-02-15T00:38:59;0;0;
82886;PMS5003;72660;51.258;-2.200;2024-02-15T00:41:24;1;1;
82886;PMS5003;72660;51.258;-2.200;2024-02-15T00:43:49;2;2;
82886;PMS5003;72660;51.258;-2.200;2024-02-15T00:46:15;1;1;
82886;PMS5003;72660;51.258;-2.200;2024-02-15T00:48:40;2;2;
82886;PMS5003;72660;51.258;-2.200;2024-02-15T00:51:05;2;2;
82886;PMS5003;72660;51.258;-2.200;2024-02-15T00:53:30;1;1;
82886;PMS5003;72660;51.258;-2.200;2024-02-15T00:55:55;1;1;
82886;PMS5003;72660;51.258;-2.200;2024-02-15T00:58:21;2;2;
82886;PMS5003;72660;51.258;-2.200;2024-02-15T01:00:46;1;1;
82886;PMS5003;72660;51.258;-2.200;2024-02-15T01:03:11;1;1;
82886;PMS5003;72660;51.258;-2.200;2024-02-15T01:05:36;2;1;
82886;PMS5003;72660;51.258;-2.200;2024-02-15T01:08:02;2;2;
82886;PMS5003;72660;51.258;-2.200;2024-02-15T01:10:27;0;0;
82886;PMS5003;72660;51.258;-2.200;2024-02-15T01:12:52;1;1;
82886;PMS5003;72660;51.258;-2.200;2024-02-15T01:15:18;0;0;
82886;PMS5003;72660;51.258;-2.200;2024-02-15T01:17:43;0;0;
82886;PMS5003;72660;51.258;-2.200;2024-02-15T01:20:09;0;0;
82886;PMS5003;72660;51.258;-2.200;2024-02-15T01:22:33;1;0;
82886;PMS5003;72660;51.258;-2.200;2024-02-15T01:24:59;1;1;
82886;PMS5003;72660;51.258;-2.200;2024-02-15T01:27:24;1;1;
82886;PMS5003;72660;51.258;-2.200;2024-02-15T01:29:49;0;0;
82886;PMS5003;72660;51.258;-2.200;2024-02-15T01:32:14;1;1;
82886;PMS5003;72660;51.258;-2.200;2024-02-15T01:34:40;1;1;
82886;PMS5003;72660;51.258;-2.200;2024-02-15T01:37:05;1;1;
82886;PMS5003;72660;51.258;-2.200;2024-02-15T01:39:30;1;1;
82886;PMS5003;72660;51.258;-2.200;2024-02-15T01:41:55;4;2;
82886;PMS5003;72660;51.258;-2.200;2024-02-15T01:44:20;1;1;
82886;PMS5003;72660;51.258;-2.200;2024-02-15T01:46:46;2;2;
82886;PMS5003;72660;51.258;-2.200;2024-02-15T01:49:11;1;1;
82886;PMS5003;72660;51.258;-2.200;2024-02-15T01:51:37;1;1;
82886;PMS5003;72660;51.258;-2.200;2024-02-15T01:54:02;0;0;
82886;PMS5003;72660;51.258;-2.200;2024-02-15T01:56:27;0;0;
82886;PMS5003;72660;51.258;-2.200;2024-02-15T01:58:52;0;0;
82886;PMS5003;72660;51.258;-2.200;2024-02-15T02:01:18;0;0;
82886;PMS5003;72660;51.258;-2.200;2024-02-15T02:03:43;1;1;
82886;PMS5003;72660;51.258;-2.200;2024-02-15T02:06:09;3;3;
82886;PMS5003;72660;51.258;-2.200;2024-02-15T02:08:33;0;0;
82886;PMS5003;72660;51.258;-2.200;2024-02-15T02:10:59;1;1;
82886;PMS5003;72660;51.258;-2.200;2024-02-15T02:13:24;0;0;
82886;PMS5003;72660;51.258;-2.200;2024-02-15T02:15:49;1;1;
82886;PMS5003;72660;51.258;-2.200;2024-02-15T02:18:14;1;1;
82886;PMS5003;72660;51.258;-2.200;2024-02-15T02:20:40;0;0;
82886;PMS5003;72660;51.258;-2.200;2024-02-15T02:23:07;2;2;
82886;PMS5003;72660;51.258;-2.200;2024-02-15T02:25:30;0;0;
82886;PMS5003;72660;51.258;-2.200;2024-02-15T02:27:55;0;0;
82886;PMS5003;72660;51.258;-2.200;2024-02-15T02:30:20;1;1;
82886;PMS5003;72660;51.258;-2.200;2024-02-15T02:32:46;3;2;
82886;PMS5003;72660;51.258;-2.200;2024-02-15T02:35:11;1;1;
82886;PMS5003;72660;51.258;-2.200;2024-02-15T02:37:36;1;1;
82886;PMS5003;72660;51.258;-2.200;2024-02-15T02:40:02;2;1;
82886;PMS5003;72660;51.258;-2.200;2024-02-15T02:42:27;1;1;
82886;PMS5003;72660;51.258;-2.200;2024-02-15T02:44:52;0;0;
82886;PMS5003;72660;51.258;-2.200;2024-02-15T02:47:17;0;0;
82886;PMS5003;72660;51.258;-2.200;2024-02-15T02:49:43;2;2;
82886;PMS5003;72660;51.258;-2.200;2024-02-15T02:52:08;1;1;
82886;PMS5003;72660;51.258;-2.200;2024-02-15T02:54:33;2;2;
82886;PMS5003;72660;51.258;-2.200;2024-02-15T02:56:58;0;0;
82886;PMS5003;72660;51.258;-2.200;2024-02-15T02:59:24;0;0;
82886;PMS5003;72660;51.258;-2.200;2024-02-15T03:01:49;2;1;
82886;PMS5003;72660;51.258;-2.200;2024-02-15T03:04:14;1;1;
82886;PMS5003;72660;51.258;-2.200;2024-02-15T03:06:39;1;1;
82886;PMS5003;72660;51.258;-2.200;2024-02-15T03:09:04;1;1;
82886;PMS5003;72660;51.258;-2.200;2024-02-15T03:11:30;0;0;
82886;PMS5003;72660;51.258;-2.200;2024-02-15T03:13:55;1;1;
82886;PMS5003;72660;51.258;-2.200;2024-02-15T03:16:21;0;0;
82886;PMS5003;72660;51.258;-2.200;2024-02-15T03:18:45;1;1;
82886;PMS5003;72660;51.258;-2.200;2024-02-15T03:21:11;1;1;
82886;PMS5003;72660;51.258;-2.200;2024-02-15T03:23:36;0;0;
82886;PMS5003;72660;51.258;-2.200;2024-02-15T03:26:01;1;1;
82886;PMS5003;72660;51.258;-2.200;2024-02-15T03:28:27;1;1;
82886;PMS5003;72660;51.258;-2.200;2024-02-15T03:30:52;2;1;
82886;PMS5003;72660;51.258;-2.200;2024-02-15T03:33:17;1;1;
82886;PMS5003;72660;51.258;-2.200;2024-02-15T03:35:42;0;0;
82886;PMS5003;72660;51.258;-2.200;2024-02-15T03:38:07;0;0;
82886;PMS5003;72660;51.258;-2.200;2024-02-15T03:40:33;1;1;
82886;PMS5003;72660;51.258;-2.200;2024-02-15T03:42:58;2;2;
82886;PMS5003;72660;51.258;-2.200;2024-02-15T03:45:23;0;0;
82886;PMS5003;72660;51.258;-2.200;2024-02-15T03:47:49;1;1;
82886;PMS5003;72660;51.258;-2.200;2024-02-15T03:50:14;1;1;
82886;PMS5003;72660;51.258;-2.200;2024-02-15T03:52:40;1;1;
82886;PMS5003;72660;51.258;-2.200;2024-02-15T03:55:05;1;1;
82886;PMS5003;72660;51.258;-2.200;2024-02-15T03:57:30;0;0;
82886;PMS5003;72660;51.258;-2.200;2024-02-15T03:59:55;0;0;
82886;PMS5003;72660;51.258;-2.200;2024-02-15T04:02:20;1;1;
82886;PMS5003;72660;51.258;-2.200;2024-02-15T04:04:46;2;2;
82886;PMS5003;72660;51.258;-2.200;2024-02-15T04:07:11;0;0;
82886;PMS5003;72660;51.258;-2.200;2024-02-15T04:09:36;3;3;
82886;PMS5003;72660;51.258;-2.200;2024-02-15T04:12:02;1;1;
82886;PMS5003;72660;51.258;-2.200;2024-02-15T04:14:27;3;3;
82886;PMS5003;72660;51.258;-2.200;2024-02-15T04:16:52;2;2;
82886;PMS5003;72660;51.258;-2.200;2024-02-15T04:19:17;2;2;
82886;PMS5003;72660;51.258;-2.200;2024-02-15T04:21:42;2;2;
82886;PMS5003;72660;51.258;-2.200;2024-02-15T04:24:08;3;3;
82886;PMS5003;72660;51.258;-2.200;2024-02-15T04:26:33;4;4;
82886;PMS5003;72660;51.258;-2.200;2024-02-15T04:28:58;2;2;
82886;PMS5003;72660;51.258;-2.200;2024-02-15T04:31:23;3;3;
82886;PMS5003;72660;51.258;-2.200;2024-02-15T04:33:49;6;6;
82886;PMS5003;72660;51.258;-2.200;2024-02-15T04:36:14;6;6;
82886;PMS5003;72660;51.258;-2.200;2024-02-15T04:38:39;6;4;
82886;PMS5003;72660;51.258;-2.200;2024-02-15T04:41:05;4;4;
82886;PMS5003;72660;51.258;-2.200;2024-02-15T04:43:30;7;6;
82886;PMS5003;72660;51.258;-2.200;2024-02-15T04:45:56;6;5;
82886;PMS5003;72660;51.258;-2.200;2024-02-15T04:48:21;5;5;
82886;PMS5003;72660;51.258;-2.200;2024-02-15T04:50:46;6;6;
82886;PMS5003;72660;51.258;-2.200;2024-02-15T04:53:11;7;7;
82886;PMS5003;72660;51.258;-2.200;2024-02-15T04:55:37;7;7;
82886;PMS5003;72660;51.258;-2.200;2024-02-15T04:58:02;6;6;
82886;PMS5003;72660;51.258;-2.200;2024-02-15T05:00:28;12;8;
82886;PMS5003;72660;51.258;-2.200;2024-02-15T05:02:53;7;5;
82886;PMS5003;72660;51.258;-2.200;2024-02-15T05:05:19;7;6;
82886;PMS5003;72660;51.258;-2.200;2024-02-15T05:07:44;10;8;
82886;PMS5003;72660;51.258;-2.200;2024-02-15T05:10:09;6;5;
82886;PMS5003;72660;51.258;-2.200;2024-02-15T05:12:36;6;6;
82886;PMS5003;72660;51.258;-2.200;2024-02-15T05:15:01;9;8;
82886;PMS5003;72660;51.258;-2.200;2024-02-15T05:17:26;9;7;
82886;PMS5003;72660;51.258;-2.200;2024-02-15T05:19:52;8;7;
82886;PMS5003;72660;51.258;-2.200;2024-02-15T05:22:17;7;7;
82886;PMS5003;72660;51.258;-2.200;2024-02-15T05:24:42;8;7;
82886;PMS5003;72660;51.258;-2.200;2024-02-15T05:27:08;7;7;
82886;PMS5003;72660;51.258;-2.200;2024-02-15T05:29:33;7;6;
82886;PMS5003;72660;51.258;-2.200;2024-02-15T05:31:58;7;5;
82886;PMS5003;72660;51.258;-2.200;2024-02-15T05:34:24;7;6;
82886;PMS5003;72660;51.258;-2.200;2024-02-15T05:36:49;6;6;
82886;PMS5003;72660;51.258;-2.200;2024-02-15T05:39:16;8;7;
82886;PMS5003;72660;51.258;-2.200;2024-02-15T05:41:41;8;8;
82886;PMS5003;72660;51.258;-2.200;2024-02-15T05:44:06;7;7;
82886;PMS5003;72660;51.258;-2.200;2024-02-15T05:46:31;12;8;
82886;PMS5003;72660;51.258;-2.200;2024-02-15T05:48:56;10;7;
82886;PMS5003;72660;51.258;-2.200;2024-02-15T05:51:22;7;7;
82886;PMS5003;72660;51.258;-2.200;2024-02-15T05:53:48;7;7;
82886;PMS5003;72660;51.258;-2.200;2024-02-15T05:56:13;8;6;
82886;PMS5003;72660;51.258;-2.200;2024-02-15T05:58:39;14;10;
82886;PMS5003;72660;51.258;-2.200;2024-02-15T06:01:05;7;6;
82886;PMS5003;72660;51.258;-2.200;2024-02-15T06:03:30;8;7;
82886;PMS5003;72660;51.258;-2.200;2024-02-15T06:05:56;8;8;
82886;PMS5003;72660;51.258;-2.200;2024-02-15T06:08:21;7;7;
82886;PMS5003;72660;51.258;-2.200;2024-02-15T06:10:47;9;7;
82886;PMS5003;72660;51.258;-2.200;2024-02-15T06:13:12;7;4;
82886;PMS5003;72660;51.258;-2.200;2024-02-15T06:15:37;8;8;
82886;PMS5003;72660;51.258;-2.200;2024-02-15T06:18:03;10;8;
82886;PMS5003;72660;51.258;-2.200;2024-02-15T06:20:28;7;6;
82886;PMS5003;72660;51.258;-2.200;2024-02-15T06:22:54;11;6;
82886;PMS5003;72660;51.258;-2.200;2024-02-15T06:25:19;7;5;
82886;PMS5003;72660;51.258;-2.200;2024-02-15T06:27:45;8;7;
82886;PMS5003;72660;51.258;-2.200;2024-02-15T06:30:10;5;5;
82886;PMS5003;72660;51.258;-2.200;2024-02-15T06:32:35;8;7;
82886;PMS5003;72660;51.258;-2.200;2024-02-15T06:35:01;7;6;
82886;PMS5003;72660;51.258;-2.200;2024-02-15T06:37:36;9;7;
82886;PMS5003;72660;51.258;-2.200;2024-02-15T06:39:52;5;5;
82886;PMS5003;72660;51.258;-2.200;2024-02-15T06:42:17;5;5;
82886;PMS5003;72660;51.258;-2.200;2024-02-15T06:44:42;7;7;
82886;PMS5003;72660;51.258;-2.200;2024-02-15T06:47:08;5;5;
82886;PMS5003;72660;51.258;-2.200;2024-02-15T06:49:33;6;6;
82886;PMS5003;72660;51.258;-2.200;2024-02-15T06:51:58;5;5;
82886;PMS5003;72660;51.258;-2.200;2024-02-15T06:54:23;9;6;
82886;PMS5003;72660;51.258;-2.200;2024-02-15T06:56:49;10;10;
82886;PMS5003;72660;51.258;-2.200;2024-02-15T06:59:14;6;4;
82886;PMS5003;72660;51.258;-2.200;2024-02-15T07:01:40;7;7;
82886;PMS5003;72660;51.258;-2.200;2024-02-15T07:04:05;6;6;
82886;PMS5003;72660;51.258;-2.200;2024-02-15T07:06:31;6;5;
82886;PMS5003;72660;51.258;-2.200;2024-02-15T07:08:56;8;6;
82886;PMS5003;72660;51.258;-2.200;2024-02-15T07:11:21;8;6;
82886;PMS5003;72660;51.258;-2.200;2024-02-15T07:13:46;4;4;
82886;PMS5003;72660;51.258;-2.200;2024-02-15T07:16:12;7;5;
82886;PMS5003;72660;51.258;-2.200;2024-02-15T07:18:37;8;8;
82886;PMS5003;72660;51.258;-2.200;2024-02-15T07:21:03;9;7;
82886;PMS5003;72660;51.258;-2.200;2024-02-15T07:23:28;4;4;
82886;PMS5003;72660;51.258;-2.200;2024-02-15T07:25:53;8;5;
82886;PMS5003;72660;51.258;-2.200;2024-02-15T07:28:18;6;4;
82886;PMS5003;72660;51.258;-2.200;2024-02-15T07:30:44;8;7;
82886;PMS5003;72660;51.258;-2.200;2024-02-15T07:33:09;5;3;
82886;PMS5003;72660;51.258;-2.200;2024-02-15T07:35:34;9;7;
82886;PMS5003;72660;51.258;-2.200;2024-02-15T07:38:00;7;6;
82886;PMS5003;72660;51.258;-2.200;2024-02-15T07:40:25;4;4;
82886;PMS5003;72660;51.258;-2.200;2024-02-15T07:42:50;7;6;
82886;PMS5003;72660;51.258;-2.200;2024-02-15T07:45:15;6;5;
82886;PMS5003;72660;51.258;-2.200;2024-02-15T07:47:41;7;5;
82886;PMS5003;72660;51.258;-2.200;2024-02-15T07:50:07;8;6;
82886;PMS5003;72660;51.258;-2.200;2024-02-15T07:52:32;5;5;
82886;PMS5003;72660;51.258;-2.200;2024-02-15T07:54:57;6;6;
82886;PMS5003;72660;51.258;-2.200;2024-02-15T07:57:22;7;4;
82886;PMS5003;72660;51.258;-2.200;2024-02-15T07:59:48;6;6;
82886;PMS5003;72660;51.258;-2.200;2024-02-15T08:02:13;10;7;
82886;PMS5003;72660;51.258;-2.200;2024-02-15T08:04:39;5;5;
82886;PMS5003;72660;51.258;-2.200;2024-02-15T08:07:04;5;5;
82886;PMS5003;72660;51.258;-2.200;2024-02-15T08:09:29;6;6;
82886;PMS5003;72660;51.258;-2.200;2024-02-15T08:11:55;9;6;
82886;PMS5003;72660;51.258;-2.200;2024-02-15T08:14:20;3;3;
82886;PMS5003;72660;51.258;-2.200;2024-02-15T08:16:46;7;7;
82886;PMS5003;72660;51.258;-2.200;2024-02-15T08:19:11;7;6;
82886;PMS5003;72660;51.258;-2.200;2024-02-15T08:21:36;5;5;
82886;PMS5003;72660;51.258;-2.200;2024-02-15T08:24:02;5;5;
82886;PMS5003;72660;51.258;-2.200;2024-02-15T08:26:27;8;7;
82886;PMS5003;72660;51.258;-2.200;2024-02-15T08:28:52;8;7;
82886;PMS5003;72660;51.258;-2.200;2024-02-15T08:31:18;9;7;
82886;PMS5003;72660;51.258;-2.200;2024-02-15T08:33:43;6;5;
82886;PMS5003;72660;51.258;-2.200;2024-02-15T08:36:09;8;7;
82886;PMS5003;72660;51.258;-2.200;2024-02-15T08:38:35;11;7;
82886;PMS5003;72660;51.258;-2.200;2024-02-15T08:41:00;6;6;
82886;PMS5003;72660;51.258;-2.200;2024-02-15T08:43:26;7;5;
82886;PMS5003;72660;51.258;-2.200;2024-02-15T08:45:51;6;6;
82886;PMS5003;72660;51.258;-2.200;2024-02-15T08:48:16;7;6;
82886;PMS5003;72660;51.258;-2.200;2024-02-15T08:50:42;9;7;
82886;PMS5003;72660;51.258;-2.200;2024-02-15T08:53:08;11;7;
82886;PMS5003;72660;51.258;-2.200;2024-02-15T08:55:34;7;6;
82886;PMS5003;72660;51.258;-2.200;2024-02-15T08:57:58;7;7;
82886;PMS5003;72660;51.258;-2.200;2024-02-15T09:00:24;10;8;
82886;PMS5003;72660;51.258;-2.200;2024-02-15T09:02:49;7;6;
82886;PMS5003;72660;51.258;-2.200;2024-02-15T09:05:14;7;7;
82886;PMS5003;72660;51.258;-2.200;2024-02-15T09:07:40;7;6;
82886;PMS5003;72660;51.258;-2.200;2024-02-15T09:10:05;7;6;
82886;PMS5003;72660;51.258;-2.200;2024-02-15T09:12:30;7;7;
82886;PMS5003;72660;51.258;-2.200;2024-02-15T09:14:55;6;6;
82886;PMS5003;72660;51.258;-2.200;2024-02-15T09:17:20;7;6;
82886;PMS5003;72660;51.258;-2.200;2024-02-15T09:19:46;4;4;
82886;PMS5003;72660;51.258;-2.200;2024-02-15T09:22:11;6;4;
82886;PMS5003;72660;51.258;-2.200;2024-02-15T09:24:37;5;5;
82886;PMS5003;72660;51.258;-2.200;2024-02-15T09:27:01;3;3;
82886;PMS5003;72660;51.258;-2.200;2024-02-15T09:29:27;5;5;
82886;PMS5003;72660;51.258;-2.200;2024-02-15T09:31:52;3;3;
82886;PMS5003;72660;51.258;-2.200;2024-02-15T09:34:17;6;4;
82886;PMS5003;72660;51.258;-2.200;2024-02-15T09:36:43;4;4;
82886;PMS5003;72660;51.258;-2.200;2024-02-15T09:39:08;8;5;
82886;PMS5003;72660;51.258;-2.200;2024-02-15T09:41:33;13;12;
82886;PMS5003;72660;51.258;-2.200;2024-02-15T09:43:59;8;5;
82886;PMS5003;72660;51.258;-2.200;2024-02-15T09:46:24;5;4;
82886;PMS5003;72660;51.258;-2.200;2024-02-15T09:48:50;6;4;
82886;PMS5003;72660;51.258;-2.200;2024-02-15T09:51:14;8;4;
82886;PMS5003;72660;51.258;-2.200;2024-02-15T09:53:40;6;4;
82886;PMS5003;72660;51.258;-2.200;2024-02-15T09:56:05;6;6;
82886;PMS5003;72660;51.258;-2.200;2024-02-15T09:58:30;7;5;
82886;PMS5003;72660;51.258;-2.200;2024-02-15T10:00:55;7;5;
82886;PMS5003;72660;51.258;-2.200;2024-02-15T10:03:20;8;6;
82886;PMS5003;72660;51.258;-2.200;2024-02-15T10:05:47;6;6;
82886;PMS5003;72660;51.258;-2.200;2024-02-15T10:08:11;7;5;
82886;PMS5003;72660;51.258;-2.200;2024-02-15T10:10:36;7;6;
82886;PMS5003;72660;51.258;-2.200;2024-02-15T10:13:02;3;3;
82886;PMS5003;72660;51.258;-2.200;2024-02-15T10:15:27;6;6;
82886;PMS5003;72660;51.258;-2.200;2024-02-15T10:17:53;6;6;
82886;PMS5003;72660;51.258;-2.200;2024-02-15T10:20:17;6;6;
82886;PMS5003;72660;51.258;-2.200;2024-02-15T10:22:43;7;6;
82886;PMS5003;72660;51.258;-2.200;2024-02-15T10:25:10;9;9;
82886;PMS5003;72660;51.258;-2.200;2024-02-15T10:27:35;7;6;
82886;PMS5003;72660;51.258;-2.200;2024-02-15T10:32:26;6;6;
82886;PMS5003;72660;51.258;-2.200;2024-02-15T10:34:51;6;5;
82886;PMS5003;72660;51.258;-2.200;2024-02-15T10:37:16;4;4;
82886;PMS5003;72660;51.258;-2.200;2024-02-15T10:39:42;7;6;
82886;PMS5003;72660;51.258;-2.200;2024-02-15T10:42:07;6;6;
82886;PMS5003;72660;51.258;-2.200;2024-02-15T10:44:32;7;5;
82886;PMS5003;72660;51.258;-2.200;2024-02-15T10:46:57;9;6;
82886;PMS5003;72660;51.258;-2.200;2024-02-15T10:49:23;8;6;
82886;PMS5003;72660;51.258;-2.200;2024-02-15T10:51:49;6;5;
82886;PMS5003;72660;51.258;-2.200;2024-02-15T10:54:14;5;5;
82886;PMS5003;72660;51.258;-2.200;2024-02-15T10:56:40;7;6;
82886;PMS5003;72660;51.258;-2.200;2024-02-15T10:59:10;7;6;
82886;PMS5003;72660;51.258;-2.200;2024-02-15T11:01:28;9;6;
82886;PMS5003;72660;51.258;-2.200;2024-02-15T11:03:57;8;7;
82886;PMS5003;72660;51.258;-2.200;2024-02-15T11:06:20;6;6;
82886;PMS5003;72660;51.258;-2.200;2024-02-15T11:08:45;5;5;
82886;PMS5003;72660;51.258;-2.200;2024-02-15T11:11:10;5;5;
82886;PMS5003;72660;51.258;-2.200;2024-02-15T11:13:35;7;5;
82886;PMS5003;72660;51.258;-2.200;2024-02-15T11:16:01;5;5;
82886;PMS5003;72660;51.258;-2.200;2024-02-15T11:20:51;9;7;
82886;PMS5003;72660;51.258;-2.200;2024-02-15T11:23:25;7;7;
82886;PMS5003;72660;51.258;-2.200;2024-02-15T11:25:42;7;6;
82886;PMS5003;72660;51.258;-2.200;2024-02-15T11:30:32;6;5;
82886;PMS5003;72660;51.258;-2.200;2024-02-15T11:32:57;5;5;
82886;PMS5003;72660;51.258;-2.200;2024-02-15T11:35:23;7;7;
82886;PMS5003;72660;51.258;-2.200;2024-02-15T11:37:50;5;5;
82886;PMS5003;72660;51.258;-2.200;2024-02-15T11:40:13;6;5;
82886;PMS5003;72660;51.258;-2.200;2024-02-15T11:42:38;3;3;
82886;PMS5003;72660;51.258;-2.200;2024-02-15T11:45:03;4;4;
82886;PMS5003;72660;51.258;-2.200;2024-02-15T11:47:28;6;5;
82886;PMS5003;72660;51.258;-2.200;2024-02-15T11:49:54;5;4;
82886;PMS5003;72660;51.258;-2.200;2024-02-15T11:52:19;5;5;
82886;PMS5003;72660;51.258;-2.200;2024-02-15T11:54:44;5;5;
82886;PMS5003;72660;51.258;-2.200;2024-02-15T11:57:10;4;4;
82886;PMS5003;72660;51.258;-2.200;2024-02-15T11:59:39;5;5;
82886;PMS5003;72660;51.258;-2.200;2024-02-15T12:02:01;4;4;
82886;PMS5003;72660;51.258;-2.200;2024-02-15T12:04:25;6;6;
82886;PMS5003;72660;51.258;-2.200;2024-02-15T12:06:56;7;6;
82886;PMS5003;72660;51.258;-2.200;2024-02-15T12:09:17;8;7;
82886;PMS5003;72660;51.258;-2.200;2024-02-15T12:11:42;4;4;
82886;PMS5003;72660;51.258;-2.200;2024-02-15T12:14:11;5;4;
82886;PMS5003;72660;51.258;-2.200;2024-02-15T12:16:32;4;4;
82886;PMS5003;72660;51.258;-2.200;2024-02-15T12:18:57;3;3;
82886;PMS5003;72660;51.258;-2.200;2024-02-15T12:21:24;3;3;
82886;PMS5003;72660;51.258;-2.200;2024-02-15T12:23:47;4;4;
82886;PMS5003;72660;51.258;-2.200;2024-02-15T12:26:13;6;6;
82886;PMS5003;72660;51.258;-2.200;2024-02-15T12:28:39;4;4;
82886;PMS5003;72660;51.258;-2.200;2024-02-15T12:31:04;7;6;
82886;PMS5003;72660;51.258;-2.200;2024-02-15T12:33:29;5;5;
82886;PMS5003;72660;51.258;-2.200;2024-02-15T12:38:20;5;5;
82886;PMS5003;72660;51.258;-2.200;2024-02-15T12:40:45;8;6;
82886;PMS5003;72660;51.258;-2.200;2024-02-15T12:43:10;5;5;
82886;PMS5003;72660;51.258;-2.200;2024-02-15T12:45:36;6;6;
82886;PMS5003;72660;51.258;-2.200;2024-02-15T12:48:02;6;6;
82886;PMS5003;72660;51.258;-2.200;2024-02-15T12:50:27;6;6;
82886;PMS5003;72660;51.258;-2.200;2024-02-15T12:52:51;8;6;
82886;PMS5003;72660;51.258;-2.200;2024-02-15T12:55:17;6;4;
82886;PMS5003;72660;51.258;-2.200;2024-02-15T12:57:43;5;5;
82886;PMS5003;72660;51.258;-2.200;2024-02-15T13:00:08;7;7;
82886;PMS5003;72660;51.258;-2.200;2024-02-15T13:02:33;9;7;
82886;PMS5003;72660;51.258;-2.200;2024-02-15T13:04:58;5;5;
82886;PMS5003;72660;51.258;-2.200;2024-02-15T13:07:23;6;6;
82886;PMS5003;72660;51.258;-2.200;2024-02-15T13:09:48;5;5;
82886;PMS5003;72660;51.258;-2.200;2024-02-15T13:12:14;6;6;
82886;PMS5003;72660;51.258;-2.200;2024-02-15T13:14:39;8;6;
82886;PMS5003;72660;51.258;-2.200;2024-02-15T13:17:05;6;6;
82886;PMS5003;72660;51.258;-2.200;2024-02-15T13:19:30;5;5;
82886;PMS5003;72660;51.258;-2.200;2024-02-15T13:21:55;6;6;
82886;PMS5003;72660;51.258;-2.200;2024-02-15T13:24:21;5;5;
82886;PMS5003;72660;51.258;-2.200;2024-02-15T13:26:46;8;6;
82886;PMS5003;72660;51.258;-2.200;2024-02-15T13:29:11;6;6;
82886;PMS5003;72660;51.258;-2.200;2024-02-15T13:31:37;6;6;
82886;PMS5003;72660;51.258;-2.200;2024-02-15T13:34:02;6;6;
82886;PMS5003;72660;51.258;-2.200;2024-02-15T13:36:27;16;10;
82886;PMS5003;72660;51.258;-2.200;2024-02-15T13:38:53;7;7;
82886;PMS5003;72660;51.258;-2.200;2024-02-15T13:41:18;8;6;
82886;PMS5003;72660;51.258;-2.200;2024-02-15T13:43:44;5;5;
82886;PMS5003;72660;51.258;-2.200;2024-02-15T13:46:09;6;6;
82886;PMS5003;72660;51.258;-2.200;2024-02-15T13:48:35;8;8;
82886;PMS5003;72660;51.258;-2.200;2024-02-15T13:51:00;7;5;
82886;PMS5003;72660;51.258;-2.200;2024-02-15T13:53:26;8;5;
82886;PMS5003;72660;51.258;-2.200;2024-02-15T13:55:51;6;6;
82886;PMS5003;72660;51.258;-2.200;2024-02-15T13:58:16;5;5;
82886;PMS5003;72660;51.258;-2.200;2024-02-15T14:00:42;7;7;
82886;PMS5003;72660;51.258;-2.200;2024-02-15T14:03:07;7;7;
82886;PMS5003;72660;51.258;-2.200;2024-02-15T14:05:32;9;6;
82886;PMS5003;72660;51.258;-2.200;2024-02-15T14:07:58;9;8;
82886;PMS5003;72660;51.258;-2.200;2024-02-15T14:10:23;8;6;
82886;PMS5003;72660;51.258;-2.200;2024-02-15T14:12:49;8;8;
82886;PMS5003;72660;51.258;-2.200;2024-02-15T14:15:14;8;6;
82886;PMS5003;72660;51.258;-2.200;2024-02-15T14:17:39;6;6;
82886;PMS5003;72660;51.258;-2.200;2024-02-15T14:20:05;8;7;
82886;PMS5003;72660;51.258;-2.200;2024-02-15T14:22:30;6;6;
82886;PMS5003;72660;51.258;-2.200;2024-02-15T14:24:55;7;7;
82886;PMS5003;72660;51.258;-2.200;2024-02-15T14:27:20;9;7;
82886;PMS5003;72660;51.258;-2.200;2024-02-15T14:29:46;7;7;
82886;PMS5003;72660;51.258;-2.200;2024-02-15T14:32:11;7;6;
82886;PMS5003;72660;51.258;-2.200;2024-02-15T14:34:36;6;4;
82886;PMS5003;72660;51.258;-2.200;2024-02-15T14:37:02;7;7;
82886;PMS5003;72660;51.258;-2.200;2024-02-15T14:39:27;11;8;
82886;PMS5003;72660;51.258;-2.200;2024-02-15T14:41:53;8;6;
82886;PMS5003;72660;51.258;-2.200;2024-02-15T14:44:18;5;5;
82886;PMS5003;72660;51.258;-2.200;2024-02-15T14:46:43;6;6;
82886;PMS5003;72660;51.258;-2.200;2024-02-15T14:49:08;9;6;
82886;PMS5003;72660;51.258;-2.200;2024-02-15T14:51:34;12;10;
82886;PMS5003;72660;51.258;-2.200;2024-02-15T14:53:59;7;7;
82886;PMS5003;72660;51.258;-2.200;2024-02-15T14:56:25;6;6;
82886;PMS5003;72660;51.258;-2.200;2024-02-15T14:58:50;10;10;
82886;PMS5003;72660;51.258;-2.200;2024-02-15T15:01:16;8;7;
82886;PMS5003;72660;51.258;-2.200;2024-02-15T15:03:42;6;6;
82886;PMS5003;72660;51.258;-2.200;2024-02-15T15:06:07;9;7;
82886;PMS5003;72660;51.258;-2.200;2024-02-15T15:08:33;7;7;
82886;PMS5003;72660;51.258;-2.200;2024-02-15T15:10:58;8;7;
82886;PMS5003;72660;51.258;-2.200;2024-02-15T15:13:23;8;7;
82886;PMS5003;72660;51.258;-2.200;2024-02-15T15:15:48;10;7;
82886;PMS5003;72660;51.258;-2.200;2024-02-15T15:18:13;4;4;
82886;PMS5003;72660;51.258;-2.200;2024-02-15T15:20:39;10;8;
82886;PMS5003;72660;51.258;-2.200;2024-02-15T15:23:04;6;6;
82886;PMS5003;72660;51.258;-2.200;2024-02-15T15:25:29;7;7;
82886;PMS5003;72660;51.258;-2.200;2024-02-15T15:27:54;10;9;
82886;PMS5003;72660;51.258;-2.200;2024-02-15T15:30:20;6;6;
82886;PMS5003;72660;51.258;-2.200;2024-02-15T15:32:45;6;6;
82886;PMS5003;72660;51.258;-2.200;2024-02-15T15:35:10;10;8;
82886;PMS5003;72660;51.258;-2.200;2024-02-15T15:37:36;5;5;
82886;PMS5003;72660;51.258;-2.200;2024-02-15T15:40:01;6;6;
82886;PMS5003;72660;51.258;-2.200;2024-02-15T15:42:26;8;6;
82886;PMS5003;72660;51.258;-2.200;2024-02-15T15:44:51;6;6;
82886;PMS5003;72660;51.258;-2.200;2024-02-15T15:47:17;10;10;
82886;PMS5003;72660;51.258;-2.200;2024-02-15T15:49:42;9;7;
82886;PMS5003;72660;51.258;-2.200;2024-02-15T15:52:07;6;6;
82886;PMS5003;72660;51.258;-2.200;2024-02-15T15:54:32;6;6;
82886;PMS5003;72660;51.258;-2.200;2024-02-15T15:56:58;8;7;
82886;PMS5003;72660;51.258;-2.200;2024-02-15T15:59:24;10;8;
82886;PMS5003;72660;51.258;-2.200;2024-02-15T16:01:50;7;7;
82886;PMS5003;72660;51.258;-2.200;2024-02-15T16:04:15;11;10;
82886;PMS5003;72660;51.258;-2.200;2024-02-15T16:06:40;6;5;
82886;PMS5003;72660;51.258;-2.200;2024-02-15T16:09:06;9;6;
82886;PMS5003;72660;51.258;-2.200;2024-02-15T16:11:31;10;7;
82886;PMS5003;72660;51.258;-2.200;2024-02-15T16:13:57;6;5;
82886;PMS5003;72660;51.258;-2.200;2024-02-15T16:16:23;8;8;
82886;PMS5003;72660;51.258;-2.200;2024-02-15T16:18:48;11;10;
82886;PMS5003;72660;51.258;-2.200;2024-02-15T16:21:13;8;8;
82886;PMS5003;72660;51.258;-2.200;2024-02-15T16:23:39;9;9;
82886;PMS5003;72660;51.258;-2.200;2024-02-15T16:26:05;9;8;
82886;PMS5003;72660;51.258;-2.200;2024-02-15T16:28:31;10;9;